createdAt,value
2022-07-25T00:00:18.559Z,6.60
2022-07-25T00:02:47.429Z,6.73
2022-07-25T00:05:15.794Z,6.40
2022-07-25T00:07:45.599Z,6.50
2022-07-25T00:10:13.961Z,6.20
2022-07-25T00:12:42.398Z,5.73
2022-07-25T00:15:11.447Z,5.97
2022-07-25T00:17:39.814Z,6.10
2022-07-25T00:20:08.973Z,6.70
2022-07-25T00:22:37.328Z,6.77
2022-07-25T00:25:07.471Z,6.70
2022-07-25T00:27:36.020Z,6.70
2022-07-25T00:30:04.493Z,7.37
2022-07-25T00:32:32.787Z,5.83
2022-07-25T00:35:01.254Z,6.10
2022-07-25T00:37:29.543Z,6.27
2022-07-25T00:39:57.871Z,6.33
2022-07-25T00:42:27.599Z,6.93
2022-07-25T00:44:56.242Z,6.40
2022-07-25T00:47:24.568Z,5.97
2022-07-25T00:49:52.913Z,6.50
2022-07-25T00:52:21.491Z,7.13
2022-07-25T00:54:49.836Z,6.40
2022-07-25T00:57:18.158Z,6.90
2022-07-25T00:59:48.093Z,6.00
2022-07-25T01:02:16.703Z,6.50
2022-07-25T01:04:45.127Z,7.23
2022-07-25T01:07:13.436Z,7.10
2022-07-25T01:09:41.746Z,6.90
2022-07-25T01:12:10.149Z,6.37
2022-07-25T01:14:38.565Z,6.30
2022-07-25T01:17:08.394Z,6.57
2022-07-25T01:19:36.661Z,6.40
2022-07-25T01:22:06.633Z,7.67
2022-07-25T01:24:35.891Z,6.60
2022-07-25T01:27:04.221Z,6.07
2022-07-25T01:29:32.501Z,5.80
2022-07-25T01:32:00.795Z,5.30
2022-07-25T01:34:29.021Z,6.37
2022-07-25T01:36:57.297Z,6.20
2022-07-25T01:39:27.095Z,6.30
2022-07-25T01:41:55.334Z,6.50
2022-07-25T01:44:23.613Z,6.40
2022-07-25T01:46:53.148Z,6.70
2022-07-25T01:49:21.614Z,6.20
2022-07-25T01:51:49.881Z,5.90
2022-07-25T01:54:18.208Z,7.10
2022-07-25T01:56:48.472Z,6.60
2022-07-25T01:59:17.031Z,6.97
2022-07-25T02:01:45.483Z,6.37
2022-07-25T02:04:14.103Z,6.00
2022-07-25T02:06:42.515Z,6.33
2022-07-25T02:09:10.981Z,6.23
2022-07-25T02:11:39.392Z,5.90
2022-07-25T02:14:09.394Z,6.23
2022-07-25T02:16:37.930Z,6.90
2022-07-25T02:19:06.403Z,6.30
2022-07-25T02:21:34.782Z,6.40
2022-07-25T02:24:03.327Z,6.10
2022-07-25T02:26:31.998Z,7.20
2022-07-25T02:29:00.254Z,7.10
2022-07-25T02:31:29.882Z,6.77
2022-07-25T02:33:58.151Z,6.63
2022-07-25T02:36:26.468Z,6.93
2022-07-25T02:38:54.794Z,7.10
2022-07-25T02:41:23.206Z,6.87
2022-07-25T02:43:51.502Z,8.90
2022-07-25T02:46:19.850Z,6.90
2022-07-25T02:48:49.481Z,6.30
2022-07-25T02:51:18.569Z,6.80
2022-07-25T02:53:57.350Z,7.20
2022-07-25T02:56:30.195Z,6.17
2022-07-25T02:59:00.283Z,6.43
2022-07-25T03:01:28.603Z,6.90
2022-07-25T03:03:58.310Z,5.80
2022-07-25T03:06:27.256Z,5.70
2022-07-25T03:08:55.559Z,7.00
2022-07-25T03:11:23.834Z,7.47
2022-07-25T03:13:52.115Z,6.23
2022-07-25T03:16:20.544Z,5.10
2022-07-25T03:18:48.870Z,6.60
2022-07-25T03:21:18.791Z,6.00
2022-07-25T03:23:52.288Z,6.23
2022-07-25T03:26:21.168Z,6.60
2022-07-25T03:28:49.493Z,6.87
2022-07-25T03:31:17.824Z,6.67
2022-07-25T03:33:46.062Z,6.80
2022-07-25T03:36:14.348Z,5.77
2022-07-25T03:38:44.002Z,6.20
2022-07-25T03:41:12.408Z,5.50
2022-07-25T03:43:40.727Z,7.27
2022-07-25T03:46:09.045Z,6.87
2022-07-25T03:48:37.678Z,7.10
2022-07-25T03:51:07.210Z,8.60
2022-07-25T03:53:55.998Z,6.23
2022-07-25T03:56:25.731Z,6.57
2022-07-25T03:58:54.025Z,8.23
2022-07-25T04:01:22.447Z,6.80
2022-07-25T04:03:50.895Z,7.80
2022-07-25T04:06:19.414Z,6.77
2022-07-25T04:08:47.726Z,6.70
2022-07-25T04:11:15.994Z,6.53
2022-07-25T04:13:45.875Z,7.13
2022-07-25T04:16:16.340Z,7.53
2022-07-25T04:18:50.659Z,7.70
2022-07-25T04:21:20.041Z,7.50
2022-07-25T04:23:48.371Z,6.80
2022-07-25T04:26:16.624Z,8.07
2022-07-25T04:28:46.336Z,7.37
2022-07-25T04:31:14.837Z,7.73
2022-07-25T04:33:43.304Z,7.00
2022-07-25T04:36:12.555Z,7.07
2022-07-25T04:38:41.104Z,7.30
2022-07-25T04:41:09.417Z,7.27
2022-07-25T04:43:37.715Z,7.73
2022-07-25T04:46:07.683Z,8.13
2022-07-25T04:48:36.106Z,8.20
2022-07-25T04:51:04.418Z,8.27
2022-07-25T04:53:34.358Z,7.60
2022-07-25T04:56:02.607Z,8.20
2022-07-25T04:58:30.858Z,7.67
2022-07-25T05:00:59.205Z,7.73
2022-07-25T05:03:29.028Z,7.27
2022-07-25T05:05:57.327Z,7.70
2022-07-25T05:08:25.639Z,7.20
2022-07-25T05:10:54.180Z,7.00
2022-07-25T05:13:22.561Z,7.70
2022-07-25T05:15:50.891Z,7.57
2022-07-25T05:18:19.165Z,7.10
2022-07-25T05:20:48.837Z,7.33
2022-07-25T05:23:17.235Z,7.00
2022-07-25T05:25:45.628Z,7.47
2022-07-25T05:28:14.864Z,7.60
2022-07-25T05:30:43.144Z,7.27
2022-07-25T05:33:11.482Z,7.67
2022-07-25T05:35:39.834Z,7.47
2022-07-25T05:38:09.577Z,6.80
2022-07-25T05:40:37.915Z,7.53
2022-07-25T05:43:06.446Z,7.23
2022-07-25T05:45:34.935Z,7.87
2022-07-25T05:48:03.235Z,7.40
2022-07-25T05:50:31.562Z,7.30
2022-07-25T05:52:59.805Z,7.63
2022-07-25T05:55:29.439Z,7.67
2022-07-25T05:57:57.841Z,9.00
2022-07-25T06:00:26.254Z,8.00
2022-07-25T06:02:54.941Z,7.23
2022-07-25T06:05:23.431Z,7.73
2022-07-25T06:07:51.732Z,8.27
2022-07-25T06:10:20.026Z,8.87
2022-07-25T06:12:49.742Z,8.20
2022-07-25T06:15:23.123Z,7.77
2022-07-25T06:17:55.706Z,7.60
2022-07-25T06:20:24.303Z,9.43
2022-07-25T06:22:52.808Z,7.40
2022-07-25T06:25:21.866Z,8.17
2022-07-25T06:27:51.684Z,7.60
2022-07-25T06:30:20.775Z,8.10
2022-07-25T06:32:49.300Z,7.13
2022-07-25T06:35:17.634Z,8.60
2022-07-25T06:37:45.920Z,7.27
2022-07-25T06:40:14.635Z,7.70
2022-07-25T06:42:43.498Z,7.60
2022-07-25T06:45:14.518Z,7.83
2022-07-25T06:47:43.741Z,7.47
2022-07-25T06:50:14.240Z,7.80
2022-07-25T06:52:43.077Z,7.90
2022-07-25T06:55:11.879Z,8.00
2022-07-25T06:57:40.599Z,8.40
2022-07-25T07:00:10.534Z,7.67
2022-07-25T07:02:50.327Z,7.40
2022-07-25T07:05:18.669Z,8.60
2022-07-25T07:07:48.140Z,7.87
2022-07-25T07:10:16.805Z,8.37
2022-07-25T07:12:45.145Z,8.87
2022-07-25T07:15:14.286Z,6.60
2022-07-25T07:17:42.652Z,9.13
2022-07-25T07:20:12.912Z,7.50
2022-07-25T07:22:46.112Z,7.70
2022-07-25T07:25:15.930Z,7.53
2022-07-25T07:27:44.689Z,7.60
2022-07-25T07:30:14.742Z,8.60
2022-07-25T07:32:43.274Z,6.97
2022-07-25T07:35:16.359Z,8.03
2022-07-25T07:37:45.208Z,7.50
2022-07-25T07:40:17.518Z,7.60
2022-07-25T07:42:47.169Z,7.30
2022-07-25T07:45:16.257Z,7.90
2022-07-25T07:47:45.346Z,7.30
2022-07-25T07:50:16.031Z,8.10
2022-07-25T07:52:44.467Z,7.23
2022-07-25T07:55:30.478Z,7.70
2022-07-25T07:57:59.652Z,8.80
2022-07-25T08:00:30.338Z,7.30
2022-07-25T08:02:59.390Z,7.27
2022-07-25T08:05:30.027Z,8.00
2022-07-25T08:07:58.301Z,7.63
2022-07-25T08:10:27.590Z,8.30
2022-07-25T08:12:55.891Z,7.57
2022-07-25T08:15:24.534Z,7.33
2022-07-25T08:17:52.995Z,8.37
2022-07-25T08:20:37.367Z,8.03
2022-07-25T08:23:07.877Z,7.67
2022-07-25T08:25:37.114Z,8.83
2022-07-25T08:28:06.310Z,7.60
2022-07-25T08:30:34.951Z,8.03
2022-07-25T08:33:04.037Z,6.23
2022-07-25T08:35:32.838Z,7.60
2022-07-25T08:38:02.692Z,7.87
2022-07-25T08:40:33.388Z,6.70
2022-07-25T08:43:02.145Z,7.33
2022-07-25T08:45:30.510Z,9.03
2022-07-25T08:47:58.797Z,8.63
2022-07-25T08:50:28.117Z,7.90
2022-07-25T08:53:29.869Z,7.30
2022-07-25T08:55:46.753Z,7.33
2022-07-25T08:58:15.471Z,7.50
2022-07-25T09:00:44.230Z,7.93
2022-07-25T09:03:13.346Z,7.87
2022-07-25T09:05:41.806Z,6.57
2022-07-25T09:08:13.088Z,7.60
2022-07-25T09:10:43.430Z,7.40
2022-07-25T09:13:14.920Z,8.10
2022-07-25T09:15:46.020Z,7.77
2022-07-25T09:18:16.998Z,8.10
2022-07-25T09:20:46.099Z,8.17
2022-07-25T09:23:15.890Z,8.63
2022-07-25T09:25:46.176Z,7.50
2022-07-25T09:28:16.736Z,8.43
2022-07-25T09:30:55.459Z,8.50
2022-07-25T09:33:24.168Z,7.63
2022-07-25T09:35:53.067Z,7.63
2022-07-25T09:38:22.129Z,7.63
2022-07-25T09:40:57.119Z,7.30
2022-07-25T09:43:37.047Z,7.87
2022-07-25T09:46:05.513Z,6.77
2022-07-25T09:48:34.347Z,6.87
2022-07-25T09:51:02.739Z,6.57
2022-07-25T09:53:31.352Z,6.93
2022-07-25T09:55:59.721Z,6.10
2022-07-25T09:58:29.997Z,5.87
2022-07-25T10:01:00.206Z,4.47
2022-07-25T10:03:31.284Z,5.23
2022-07-25T10:06:04.787Z,5.30
2022-07-25T10:08:37.041Z,4.90
2022-07-25T10:11:06.717Z,4.10
2022-07-25T10:13:39.107Z,3.80
2022-07-25T10:16:16.393Z,4.70
2022-07-25T10:18:50.507Z,4.93
2022-07-25T10:21:26.073Z,7.10
2022-07-25T10:24:02.499Z,5.90
2022-07-25T10:26:31.618Z,5.83
2022-07-25T10:29:02.574Z,5.30
2022-07-25T10:31:37.011Z,6.30
2022-07-25T10:34:07.157Z,4.20
2022-07-25T10:36:46.032Z,5.90
2022-07-25T10:39:15.150Z,5.43
2022-07-25T10:41:43.990Z,5.43
2022-07-25T10:44:15.291Z,5.93
2022-07-25T10:46:45.073Z,5.40
2022-07-25T10:49:19.279Z,4.83
2022-07-25T10:51:56.479Z,5.40
2022-07-25T10:54:24.784Z,5.37
2022-07-25T10:56:54.663Z,5.83
2022-07-25T10:59:31.242Z,5.27
2022-07-25T11:01:59.662Z,5.40
2022-07-25T11:04:28.153Z,6.10
2022-07-25T11:06:56.512Z,4.90
2022-07-25T11:09:27.549Z,5.20
2022-07-25T11:11:57.213Z,6.10
2022-07-25T11:14:26.038Z,5.60
2022-07-25T11:16:57.000Z,5.93
2022-07-25T11:19:26.918Z,5.30
2022-07-25T11:21:56.454Z,6.07
2022-07-25T11:24:35.590Z,5.10
2022-07-25T11:27:08.383Z,5.20
2022-07-25T11:29:40.286Z,4.50
2022-07-25T11:32:11.799Z,4.47
2022-07-25T11:34:41.673Z,4.20
2022-07-25T11:37:10.550Z,4.00
2022-07-25T11:39:40.054Z,3.83
2022-07-25T11:42:09.002Z,5.30
2022-07-25T11:44:40.939Z,3.47
2022-07-25T11:47:24.180Z,4.00
2022-07-25T11:49:53.394Z,4.07
2022-07-25T11:52:22.646Z,4.63
2022-07-25T11:54:58.284Z,3.63
2022-07-25T11:57:27.490Z,4.20
2022-07-25T11:59:56.785Z,3.87
2022-07-25T12:02:28.436Z,3.20
2022-07-25T12:04:57.489Z,3.80
2022-07-25T12:07:36.220Z,3.93
2022-07-25T12:10:04.615Z,3.90
2022-07-25T12:12:42.753Z,4.07
2022-07-25T12:15:11.845Z,3.80
2022-07-25T12:17:41.598Z,3.87
2022-07-25T12:20:15.282Z,3.83
2022-07-25T12:22:43.911Z,3.37
2022-07-25T12:25:12.948Z,3.23
2022-07-25T12:27:41.665Z,3.93
2022-07-25T12:30:11.148Z,4.00
2022-07-25T12:32:41.050Z,3.30
2022-07-25T12:35:10.519Z,3.67
2022-07-25T12:37:39.086Z,3.30
2022-07-25T12:40:08.240Z,3.10
2022-07-25T12:42:36.639Z,3.27
2022-07-25T12:45:05.181Z,2.40
2022-07-25T12:47:33.498Z,3.20
2022-07-25T12:50:03.675Z,3.47
2022-07-25T12:52:31.973Z,3.40
2022-07-25T12:55:00.344Z,3.00
2022-07-25T12:57:28.762Z,2.80
2022-07-25T12:59:58.106Z,3.00
2022-07-25T13:02:26.450Z,3.10
2022-07-25T13:04:54.801Z,3.00
2022-07-25T13:07:24.542Z,3.03
2022-07-25T13:09:52.826Z,2.93
2022-07-25T13:12:22.871Z,3.97
2022-07-25T13:14:51.474Z,2.83
2022-07-25T13:17:22.484Z,3.10
2022-07-25T13:19:54.990Z,3.10
2022-07-25T13:22:24.673Z,2.87
2022-07-25T13:24:53.096Z,3.37
2022-07-25T13:27:21.807Z,3.60
2022-07-25T13:29:54.104Z,2.90
2022-07-25T13:32:23.103Z,3.40
2022-07-25T13:34:51.526Z,2.90
2022-07-25T13:37:20.082Z,3.67
2022-07-25T13:39:49.757Z,3.47
2022-07-25T13:42:18.031Z,3.00
2022-07-25T13:44:46.377Z,3.17
2022-07-25T13:47:14.654Z,2.83
2022-07-25T13:49:42.928Z,3.03
2022-07-25T13:52:11.289Z,3.03
2022-07-25T13:54:39.722Z,3.43
2022-07-25T13:57:10.298Z,2.80
2022-07-25T13:59:38.903Z,3.23
2022-07-25T14:02:07.233Z,3.37
2022-07-25T14:04:35.835Z,3.00
2022-07-25T14:07:04.291Z,2.93
2022-07-25T14:09:32.734Z,1.70
2022-07-25T14:12:01.082Z,2.77
2022-07-25T14:14:30.766Z,2.13
2022-07-25T14:16:59.657Z,4.10
2022-07-25T14:19:27.984Z,3.30
2022-07-25T14:21:56.288Z,2.83
2022-07-25T14:24:24.571Z,3.40
2022-07-25T14:26:53.962Z,3.37
2022-07-25T14:29:27.190Z,3.00
2022-07-25T14:32:00.011Z,3.80
2022-07-25T14:34:28.350Z,2.80
2022-07-25T14:36:57.808Z,3.27
2022-07-25T14:39:26.176Z,3.80
2022-07-25T14:41:54.429Z,3.53
2022-07-25T14:44:22.916Z,2.60
2022-07-25T14:46:51.302Z,3.30
2022-07-25T14:49:21.279Z,3.20
2022-07-25T14:51:49.567Z,2.87
2022-07-25T14:54:18.223Z,3.20
2022-07-25T14:56:46.534Z,3.30
2022-07-25T14:59:14.827Z,2.93
2022-07-25T15:01:43.148Z,2.70
2022-07-25T15:04:11.400Z,3.60
2022-07-25T15:06:41.069Z,2.87
2022-07-25T15:09:09.881Z,3.40
2022-07-25T15:11:38.574Z,4.03
2022-07-25T15:14:06.999Z,2.43
2022-07-25T15:16:35.517Z,2.43
2022-07-25T15:19:15.855Z,3.23
2022-07-25T15:21:46.356Z,2.70
2022-07-25T15:24:14.773Z,3.37
2022-07-25T15:26:43.539Z,2.60
2022-07-25T15:29:13.519Z,2.90
2022-07-25T15:31:41.951Z,2.90
2022-07-25T15:34:10.274Z,2.83
2022-07-25T15:36:38.550Z,2.97
2022-07-25T15:39:09.751Z,2.37
2022-07-25T15:41:38.534Z,2.80
2022-07-25T15:44:07.360Z,3.13
2022-07-25T15:46:35.709Z,3.23
2022-07-25T15:49:04.713Z,2.93
2022-07-25T15:51:33.204Z,2.40
2022-07-25T15:54:01.485Z,3.00
2022-07-25T15:56:31.171Z,2.80
2022-07-25T15:58:59.436Z,3.50
2022-07-25T16:01:27.845Z,3.00
2022-07-25T16:03:59.799Z,3.37
2022-07-25T16:06:28.218Z,2.70
2022-07-25T16:08:56.516Z,2.77
2022-07-25T16:11:25.099Z,3.30
2022-07-25T16:13:54.999Z,3.97
2022-07-25T16:16:23.535Z,3.00
2022-07-25T16:18:52.056Z,3.23
2022-07-25T16:21:20.395Z,3.77
2022-07-25T16:23:48.674Z,2.73
2022-07-25T16:26:16.936Z,3.37
2022-07-25T16:28:45.650Z,3.50
2022-07-25T16:31:15.578Z,3.10
2022-07-25T16:33:44.273Z,3.40
2022-07-25T16:36:12.714Z,3.00
2022-07-25T16:38:41.054Z,3.30
2022-07-25T16:41:09.395Z,3.23
2022-07-25T16:43:37.699Z,3.80
2022-07-25T16:46:06.211Z,3.10
2022-07-25T16:48:36.269Z,2.50
2022-07-25T16:51:04.601Z,3.37
2022-07-25T16:53:33.645Z,4.70
2022-07-25T16:56:01.927Z,3.23
2022-07-25T16:58:30.273Z,2.63
2022-07-25T17:00:58.672Z,3.43
2022-07-25T17:03:27.069Z,3.60
2022-07-25T17:05:57.676Z,2.40
2022-07-25T17:08:26.410Z,2.87
2022-07-25T17:10:55.714Z,3.77
2022-07-25T17:13:24.236Z,3.60
2022-07-25T17:15:52.751Z,3.20
2022-07-25T17:18:21.439Z,3.40
2022-07-25T17:20:49.785Z,3.40
2022-07-25T17:23:20.122Z,3.30
2022-07-25T17:25:50.664Z,3.43
2022-07-25T17:28:19.187Z,3.43
2022-07-25T17:30:47.660Z,3.07
2022-07-25T17:33:16.026Z,2.87
2022-07-25T17:35:45.446Z,4.63
2022-07-25T17:38:14.458Z,2.93
2022-07-25T17:40:45.237Z,2.93
2022-07-25T17:43:13.516Z,3.43
2022-07-25T17:45:42.275Z,3.60
2022-07-25T17:48:10.563Z,2.87
2022-07-25T17:50:39.058Z,3.00
2022-07-25T17:53:07.533Z,2.10
2022-07-25T17:55:38.914Z,2.57
2022-07-25T17:58:09.046Z,2.90
2022-07-25T18:00:38.381Z,2.60
2022-07-25T18:03:06.846Z,2.60
2022-07-25T18:05:36.446Z,2.20
2022-07-25T18:08:04.950Z,2.30
2022-07-25T18:10:33.308Z,2.03
2022-07-25T18:13:02.093Z,2.30
2022-07-25T18:15:32.592Z,2.63
2022-07-25T18:18:00.915Z,2.30
2022-07-25T18:20:30.109Z,2.20
2022-07-25T18:22:59.303Z,2.40
2022-07-25T18:25:27.753Z,1.80
2022-07-25T18:27:56.148Z,2.70
2022-07-25T18:30:29.004Z,2.27
2022-07-25T18:32:59.351Z,2.57
2022-07-25T18:35:27.634Z,2.60
2022-07-25T18:37:56.072Z,1.80
2022-07-25T18:40:24.397Z,2.23
2022-07-25T18:42:57.171Z,2.57
2022-07-25T18:45:25.596Z,2.40
2022-07-25T18:47:55.046Z,2.10
2022-07-25T18:50:30.214Z,2.33
2022-07-25T18:52:59.156Z,1.87
2022-07-25T18:55:28.046Z,1.97
2022-07-25T18:57:56.433Z,1.97
2022-07-25T19:00:24.791Z,2.00
2022-07-25T19:02:53.084Z,1.70
2022-07-25T19:05:21.452Z,1.87
2022-07-25T19:07:51.188Z,1.67
2022-07-25T19:10:19.470Z,2.07
2022-07-25T19:12:47.878Z,2.00
2022-07-25T19:15:16.131Z,1.47
2022-07-25T19:17:44.975Z,1.40
2022-07-25T19:20:13.520Z,1.40
2022-07-25T19:22:41.916Z,1.87
2022-07-25T19:25:12.613Z,1.90
2022-07-25T19:27:41.661Z,1.13
2022-07-25T19:30:16.750Z,2.23
2022-07-25T19:32:45.937Z,1.97
2022-07-25T19:35:14.491Z,1.50
2022-07-25T19:37:42.788Z,1.33
2022-07-25T19:40:13.133Z,1.50
2022-07-25T19:42:42.786Z,1.33
2022-07-25T19:45:11.749Z,1.60
2022-07-25T19:47:40.116Z,1.60
2022-07-25T19:50:08.999Z,1.47
2022-07-25T19:52:37.863Z,1.87
2022-07-25T19:55:06.585Z,1.90
2022-07-25T19:57:36.351Z,1.23
2022-07-25T20:00:05.077Z,1.40
2022-07-25T20:02:33.715Z,1.53
2022-07-25T20:05:02.765Z,1.77
2022-07-25T20:07:31.871Z,1.63
2022-07-25T20:10:00.499Z,1.30
2022-07-25T20:12:28.992Z,1.60
2022-07-25T20:14:58.998Z,1.77
2022-07-25T20:17:27.735Z,1.50
2022-07-25T20:19:56.040Z,2.00
2022-07-25T20:22:24.318Z,1.67
2022-07-25T20:24:52.654Z,1.47
2022-07-25T20:27:21.034Z,1.60
2022-07-25T20:29:49.323Z,1.60
2022-07-25T20:32:18.993Z,1.63
2022-07-25T20:34:47.495Z,1.80
2022-07-25T20:37:15.892Z,1.60
2022-07-25T20:39:44.698Z,1.50
2022-07-25T20:42:16.794Z,1.77
2022-07-25T20:44:45.274Z,1.60
2022-07-25T20:47:14.730Z,1.30
2022-07-25T20:49:48.682Z,1.60
2022-07-25T20:52:16.993Z,1.40
2022-07-25T20:54:46.412Z,1.70
2022-07-25T20:57:14.985Z,1.90
2022-07-25T20:59:44.437Z,1.53
2022-07-25T21:02:12.798Z,1.30
2022-07-25T21:04:41.196Z,1.43
2022-07-25T21:07:10.861Z,1.53
2022-07-25T21:09:39.866Z,1.67
2022-07-25T21:12:08.442Z,1.60
2022-07-25T21:14:36.694Z,1.83
2022-07-25T21:17:05.220Z,1.37
2022-07-25T21:19:33.674Z,1.40
2022-07-25T21:22:03.159Z,1.40
2022-07-25T21:24:33.392Z,1.30
2022-07-25T21:27:01.901Z,1.70
2022-07-25T21:29:30.181Z,1.37
2022-07-25T21:31:58.462Z,2.23
2022-07-25T21:34:26.884Z,1.40
2022-07-25T21:36:55.173Z,1.60
2022-07-25T21:39:23.671Z,1.57
2022-07-25T21:41:54.994Z,1.87
2022-07-25T21:44:23.908Z,1.40
2022-07-25T21:46:52.242Z,1.00
2022-07-25T21:49:41.410Z,1.83
2022-07-25T21:52:13.818Z,0.97
2022-07-25T21:54:42.616Z,1.50
2022-07-25T21:57:13.797Z,1.50
2022-07-25T21:59:42.788Z,2.10
2022-07-25T22:02:11.198Z,1.10
2022-07-25T22:04:39.735Z,1.53
2022-07-25T22:07:08.006Z,1.43
2022-07-25T22:09:36.348Z,1.27
2022-07-25T22:12:04.783Z,1.23
2022-07-25T22:14:34.454Z,1.40
2022-07-25T22:17:02.820Z,1.27
2022-07-25T22:19:31.103Z,1.30
2022-07-25T22:21:59.618Z,1.33
2022-07-25T22:24:27.976Z,1.80
2022-07-25T22:26:56.299Z,1.50
2022-07-25T22:29:24.572Z,1.27
2022-07-25T22:31:54.217Z,1.20
2022-07-25T22:34:22.543Z,1.93
2022-07-25T22:36:51.000Z,1.37
2022-07-25T22:39:19.441Z,1.37
2022-07-25T22:41:47.699Z,1.63
2022-07-25T22:44:16.145Z,1.30
2022-07-25T22:46:44.617Z,0.97
2022-07-25T22:49:14.326Z,1.23
2022-07-25T22:51:42.617Z,1.30
2022-07-25T22:54:10.937Z,1.77
2022-07-25T22:56:39.325Z,1.10
2022-07-25T22:59:07.928Z,1.40
2022-07-25T23:01:36.490Z,1.33
2022-07-25T23:04:04.846Z,1.60
2022-07-25T23:06:34.599Z,1.43
2022-07-25T23:09:02.850Z,1.70
2022-07-25T23:11:31.230Z,1.57
2022-07-25T23:13:59.558Z,1.10
2022-07-25T23:16:28.131Z,1.57
2022-07-25T23:18:57.186Z,1.40
2022-07-25T23:21:25.515Z,1.43
2022-07-25T23:23:55.304Z,1.30
2022-07-25T23:26:23.662Z,1.40
2022-07-25T23:28:51.888Z,1.30
2022-07-25T23:31:20.201Z,1.30
2022-07-25T23:33:48.494Z,1.33
2022-07-25T23:36:16.744Z,2.00
2022-07-25T23:38:45.007Z,1.40
2022-07-25T23:41:14.658Z,1.63
2022-07-25T23:43:57.523Z,1.80
2022-07-25T23:46:29.583Z,1.50
2022-07-25T23:48:59.748Z,1.13
2022-07-25T23:51:28.296Z,1.87
2022-07-25T23:53:56.632Z,1.40
2022-07-25T23:56:26.269Z,1.67
2022-07-25T23:58:54.606Z,1.30
